createdAt,value
2018-03-16T00:01:50.306Z,93.90
2018-03-16T00:04:17.866Z,93.90
2018-03-16T00:06:45.446Z,94.00
2018-03-16T00:09:13.002Z,94.00
2018-03-16T00:11:40.543Z,94.10
2018-03-16T00:14:08.226Z,94.10
2018-03-16T00:16:35.775Z,94.20
2018-03-16T00:19:03.330Z,94.20
2018-03-16T00:21:30.898Z,94.10
2018-03-16T00:23:58.460Z,94.20
2018-03-16T00:26:26.130Z,94.30
2018-03-16T00:28:53.794Z,94.30
2018-03-16T00:31:21.455Z,94.30
2018-03-16T00:33:49.017Z,94.30
2018-03-16T00:36:16.609Z,94.40
2018-03-16T00:38:44.243Z,94.40
2018-03-16T00:41:11.941Z,94.70
2018-03-16T00:43:40.384Z,94.50
2018-03-16T00:46:07.935Z,94.40
2018-03-16T00:48:35.508Z,94.40
2018-03-16T00:51:03.066Z,94.40
2018-03-16T00:53:30.624Z,94.30
2018-03-16T00:55:58.190Z,94.40
2018-03-16T00:58:25.763Z,94.40
2018-03-16T01:00:53.307Z,94.40
2018-03-16T01:03:20.883Z,94.40
2018-03-16T01:05:48.479Z,94.50
2018-03-16T01:08:16.813Z,94.50
2018-03-16T01:10:44.371Z,94.50
2018-03-16T01:13:11.925Z,94.50
2018-03-16T01:15:39.472Z,94.50
2018-03-16T01:18:07.040Z,94.50
2018-03-16T01:20:40.433Z,94.60
2018-03-16T01:23:07.987Z,94.60
2018-03-16T01:25:35.532Z,94.50
2018-03-16T01:28:03.118Z,94.50
2018-03-16T01:30:30.691Z,94.60
2018-03-16T01:32:58.236Z,94.70
2018-03-16T01:35:25.806Z,94.70
2018-03-16T01:37:53.383Z,94.70
2018-03-16T01:40:21.124Z,94.70
2018-03-16T01:42:48.700Z,94.70
2018-03-16T01:45:16.267Z,94.60
2018-03-16T01:47:43.816Z,94.70
2018-03-16T01:50:11.381Z,94.70
2018-03-16T01:52:38.935Z,94.70
2018-03-16T01:55:06.483Z,94.70
2018-03-16T01:57:34.054Z,94.90
2018-03-16T02:00:02.468Z,95.00
2018-03-16T02:02:30.121Z,95.10
2018-03-16T02:04:57.681Z,95.20
2018-03-16T02:07:25.232Z,95.30
2018-03-16T02:09:52.792Z,95.30
2018-03-16T02:12:20.456Z,95.20
2018-03-16T02:14:48.006Z,95.20
2018-03-16T02:17:15.582Z,95.20
2018-03-16T02:19:43.141Z,95.30
2018-03-16T02:22:10.690Z,95.30
2018-03-16T02:24:38.240Z,95.30
2018-03-16T02:27:05.806Z,95.40
2018-03-16T02:29:33.349Z,95.40
2018-03-16T02:32:00.904Z,95.50
2018-03-16T02:34:28.473Z,95.50
2018-03-16T02:36:56.076Z,95.50
2018-03-16T02:39:23.623Z,95.40
2018-03-16T02:41:51.277Z,95.40
2018-03-16T02:44:18.827Z,95.30
2018-03-16T02:46:46.377Z,95.30
2018-03-16T02:49:13.951Z,95.20
2018-03-16T02:51:41.503Z,95.10
2018-03-16T02:54:09.061Z,95.10
2018-03-16T02:56:36.656Z,95.00
2018-03-16T02:59:04.218Z,94.90
2018-03-16T03:01:31.882Z,94.80
2018-03-16T03:03:59.438Z,94.80
2018-03-16T03:06:26.998Z,94.70
2018-03-16T03:08:54.542Z,94.70
2018-03-16T03:11:22.117Z,94.70
2018-03-16T03:13:49.668Z,94.60
2018-03-16T03:16:17.252Z,94.70
2018-03-16T03:18:44.831Z,94.60
2018-03-16T03:21:12.376Z,94.70
2018-03-16T03:23:39.921Z,94.70
2018-03-16T03:26:07.500Z,94.70
2018-03-16T03:28:35.150Z,94.70
2018-03-16T03:31:02.718Z,94.70
2018-03-16T03:33:30.579Z,94.70
2018-03-16T03:35:58.148Z,94.80
2018-03-16T03:38:25.701Z,94.80
2018-03-16T03:40:53.280Z,94.90
2018-03-16T03:43:20.935Z,94.90
2018-03-16T03:45:48.585Z,94.80
2018-03-16T03:48:16.147Z,94.80
2018-03-16T03:50:43.709Z,94.90
2018-03-16T03:53:11.265Z,94.80
2018-03-16T03:55:38.928Z,94.80
2018-03-16T03:58:06.484Z,94.70
2018-03-16T04:00:34.050Z,94.80
2018-03-16T04:03:01.705Z,94.90
2018-03-16T04:05:29.273Z,94.80
2018-03-16T04:07:56.821Z,94.90
2018-03-16T04:10:24.398Z,94.80
2018-03-16T04:12:51.943Z,94.80
2018-03-16T04:15:19.481Z,94.80
2018-03-16T04:17:47.823Z,94.80
2018-03-16T04:20:15.466Z,94.80
2018-03-16T04:22:43.009Z,94.80
2018-03-16T04:25:10.690Z,94.90
2018-03-16T04:27:38.258Z,94.90
2018-03-16T04:30:05.835Z,94.80
2018-03-16T04:32:33.470Z,94.80
2018-03-16T04:35:01.019Z,94.90
2018-03-16T04:37:28.570Z,95.00
2018-03-16T04:39:56.143Z,95.10
2018-03-16T04:42:23.680Z,95.20
2018-03-16T04:44:51.287Z,95.40
2018-03-16T04:47:18.859Z,95.60
2018-03-16T04:49:46.413Z,95.60
2018-03-16T04:52:13.958Z,95.80
2018-03-16T04:54:41.610Z,96.00
2018-03-16T04:57:09.175Z,96.10
2018-03-16T04:59:36.736Z,96.20
2018-03-16T05:02:04.407Z,96.20
2018-03-16T05:04:31.950Z,96.20
2018-03-16T05:06:59.530Z,96.30
2018-03-16T05:09:27.098Z,96.20
2018-03-16T05:11:54.642Z,96.20
2018-03-16T05:14:22.199Z,96.20
2018-03-16T05:16:49.869Z,96.30
2018-03-16T05:19:17.441Z,96.30
2018-03-16T05:21:44.993Z,96.30
2018-03-16T05:24:12.562Z,96.40
2018-03-16T05:26:40.110Z,96.30
2018-03-16T05:29:07.666Z,96.30
2018-03-16T05:31:35.227Z,96.30
2018-03-16T05:34:02.839Z,96.40
2018-03-16T05:36:30.492Z,96.40
2018-03-16T05:38:58.078Z,96.20
2018-03-16T05:41:26.398Z,96.30
2018-03-16T05:43:53.968Z,96.30
2018-03-16T05:46:21.633Z,96.30
2018-03-16T05:48:49.203Z,96.30
2018-03-16T05:51:16.750Z,96.30
2018-03-16T05:53:44.410Z,96.30
2018-03-16T05:56:11.956Z,96.30
2018-03-16T05:58:39.501Z,96.30
2018-03-16T06:01:07.083Z,96.30
2018-03-16T06:03:34.657Z,96.20
2018-03-16T06:06:02.213Z,96.10
2018-03-16T06:08:29.794Z,96.00
2018-03-16T06:10:57.365Z,96.00
2018-03-16T06:13:25.684Z,96.00
2018-03-16T06:15:53.292Z,96.00
2018-03-16T06:18:20.836Z,96.00
2018-03-16T06:20:48.385Z,96.00
2018-03-16T06:23:15.948Z,96.00
2018-03-16T06:25:43.491Z,96.00
2018-03-16T06:28:11.037Z,96.00
2018-03-16T06:30:39.372Z,96.00
2018-03-16T06:33:06.919Z,96.00
2018-03-16T06:35:34.484Z,96.00
2018-03-16T06:38:02.072Z,96.00
2018-03-16T06:40:29.628Z,95.90
2018-03-16T06:42:57.287Z,95.90
2018-03-16T06:45:24.953Z,95.90
2018-03-16T06:47:52.540Z,95.90
2018-03-16T06:50:20.885Z,95.90
2018-03-16T06:52:48.442Z,95.80
2018-03-16T06:55:16.088Z,95.80
2018-03-16T06:57:43.651Z,95.80
2018-03-16T07:00:11.324Z,95.80
2018-03-16T07:02:38.877Z,95.80
2018-03-16T07:05:06.446Z,95.70
2018-03-16T07:07:33.998Z,95.70
2018-03-16T07:10:01.535Z,95.70
2018-03-16T07:12:29.090Z,95.80
2018-03-16T07:14:56.668Z,95.80
2018-03-16T07:17:24.217Z,95.80
2018-03-16T07:19:51.767Z,95.80
2018-03-16T07:22:19.368Z,95.90
2018-03-16T07:24:46.930Z,95.90
2018-03-16T07:27:14.501Z,96.00
2018-03-16T07:29:42.079Z,96.00
2018-03-16T07:32:10.440Z,96.10
2018-03-16T07:34:37.989Z,96.10
2018-03-16T07:37:05.553Z,96.10
2018-03-16T07:39:33.112Z,96.10
2018-03-16T07:42:00.672Z,96.10
2018-03-16T07:44:28.220Z,96.10
2018-03-16T07:46:55.768Z,96.10
2018-03-16T07:49:23.325Z,96.30
2018-03-16T07:51:50.909Z,96.40
2018-03-16T07:54:18.472Z,96.40
2018-03-16T07:56:46.030Z,96.40
2018-03-16T07:59:13.595Z,96.40
2018-03-16T08:01:41.144Z,96.60
2018-03-16T08:04:08.694Z,96.80
2018-03-16T08:06:36.275Z,96.90
2018-03-16T08:09:03.822Z,97.00
2018-03-16T08:11:31.400Z,97.10
2018-03-16T08:13:59.067Z,97.20
2018-03-16T08:16:26.651Z,97.30
2018-03-16T08:18:54.257Z,97.40
2018-03-16T08:21:22.578Z,97.60
2018-03-16T08:23:50.129Z,97.60
2018-03-16T08:26:17.688Z,97.80
2018-03-16T08:28:45.363Z,97.90
2018-03-16T08:31:12.934Z,98.00
2018-03-16T08:33:40.493Z,98.00
2018-03-16T08:36:08.070Z,98.00
2018-03-16T08:38:35.642Z,98.00
2018-03-16T08:41:03.997Z,98.00
2018-03-16T08:43:33.186Z,98.00
2018-03-16T08:46:00.789Z,98.00
2018-03-16T08:48:28.326Z,98.10
2018-03-16T08:50:55.902Z,98.50
2018-03-16T08:53:24.221Z,98.20
2018-03-16T08:55:51.764Z,98.20
2018-03-16T08:58:19.336Z,98.50
2018-03-16T09:00:46.926Z,98.60
2018-03-16T09:03:14.668Z,98.80
2018-03-16T09:05:42.246Z,98.70
2018-03-16T09:08:09.822Z,98.90
2018-03-16T09:10:37.376Z,98.90
2018-03-16T09:13:05.031Z,99.00
2018-03-16T09:15:32.592Z,99.10
2018-03-16T09:18:00.157Z,99.20
2018-03-16T09:20:27.734Z,98.60
2018-03-16T09:22:55.287Z,98.50
2018-03-16T09:25:22.938Z,98.60
2018-03-16T09:27:50.507Z,98.50
2018-03-16T09:30:18.076Z,98.20
2018-03-16T09:32:45.635Z,98.10
2018-03-16T09:35:13.296Z,97.70
2018-03-16T09:37:40.967Z,97.60
2018-03-16T09:40:08.610Z,97.80
2018-03-16T09:42:36.187Z,97.70
2018-03-16T09:45:03.748Z,97.60
2018-03-16T09:47:32.083Z,97.40
2018-03-16T09:49:59.677Z,97.20
2018-03-16T09:52:27.224Z,96.90
2018-03-16T09:55:06.783Z,96.70
2018-03-16T09:57:34.327Z,96.00
2018-03-16T10:00:01.879Z,96.50
2018-03-16T10:02:29.462Z,96.50
2018-03-16T10:04:57.032Z,96.60
2018-03-16T10:07:24.579Z,95.80
2018-03-16T10:09:52.161Z,95.40
2018-03-16T10:12:19.734Z,95.00
2018-03-16T10:14:47.298Z,95.00
2018-03-16T10:17:15.745Z,95.20
2018-03-16T10:19:43.308Z,95.20
2018-03-16T10:22:10.873Z,94.50
2018-03-16T10:24:38.444Z,94.20
2018-03-16T10:27:05.991Z,93.90
2018-03-16T10:29:33.665Z,94.20
2018-03-16T10:32:01.256Z,94.00
2018-03-16T10:34:29.585Z,93.20
2018-03-16T10:36:57.171Z,93.20
2018-03-16T10:39:24.738Z,92.90
2018-03-16T10:41:52.397Z,92.70
2018-03-16T10:44:19.961Z,93.30
2018-03-16T10:46:47.617Z,92.50
2018-03-16T10:49:15.267Z,92.60
2018-03-16T10:51:42.935Z,92.30
2018-03-16T10:54:10.504Z,92.40
2018-03-16T10:56:38.161Z,92.70
2018-03-16T10:59:05.822Z,92.50
2018-03-16T11:01:39.027Z,92.70
2018-03-16T11:04:15.398Z,92.90
2018-03-16T11:09:46.731Z,92.80
2018-03-16T11:12:14.319Z,92.70
2018-03-16T11:14:41.874Z,92.50
2018-03-16T11:17:09.558Z,92.30
2018-03-16T11:19:37.131Z,92.30
2018-03-16T11:22:05.462Z,91.90
2018-03-16T11:24:33.014Z,92.00
2018-03-16T11:27:00.600Z,91.80
2018-03-16T11:29:28.267Z,92.30
2018-03-16T11:31:55.927Z,91.40
2018-03-16T11:34:23.587Z,92.10
2018-03-16T11:36:51.130Z,91.40
2018-03-16T11:39:18.689Z,90.80
2018-03-16T11:41:46.267Z,90.20
2018-03-16T11:44:13.826Z,89.90
2018-03-16T11:46:41.389Z,88.50
2018-03-16T11:49:09.064Z,88.90
2018-03-16T11:51:36.628Z,90.60
2018-03-16T11:54:04.191Z,88.70
2018-03-16T11:56:31.843Z,89.80
2018-03-16T11:58:59.541Z,87.80
2018-03-16T12:01:27.879Z,85.70
2018-03-16T12:03:55.557Z,85.70
2018-03-16T12:06:23.215Z,82.10
2018-03-16T12:08:50.774Z,83.80
2018-03-16T12:11:18.454Z,85.60
2018-03-16T12:13:46.111Z,81.40
2018-03-16T12:16:13.677Z,83.40
2018-03-16T12:18:41.255Z,84.70
2018-03-16T12:21:09.572Z,84.70
2018-03-16T12:23:37.130Z,83.90
2018-03-16T12:26:04.717Z,81.70
2018-03-16T12:28:49.433Z,83.50
2018-03-16T12:30:59.997Z,82.40
2018-03-16T12:33:27.614Z,82.00
2018-03-16T12:35:55.168Z,79.40
2018-03-16T12:38:22.810Z,82.20
2018-03-16T12:40:50.398Z,80.70
2018-03-16T12:43:17.958Z,79.80
2018-03-16T12:45:45.520Z,77.70
2018-03-16T12:48:13.165Z,77.40
2018-03-16T12:50:40.734Z,77.00
2018-03-16T12:53:08.288Z,76.50
2018-03-16T12:55:35.876Z,78.70
2018-03-16T12:58:03.432Z,78.60
2018-03-16T13:00:31.002Z,76.00
2018-03-16T13:02:58.593Z,77.50
2018-03-16T13:05:26.150Z,78.90
2018-03-16T13:07:54.485Z,79.10
2018-03-16T13:10:22.064Z,79.10
2018-03-16T13:12:49.612Z,77.10
2018-03-16T13:15:17.149Z,76.90
2018-03-16T13:17:44.726Z,77.50
2018-03-16T13:20:12.290Z,79.00
2018-03-16T13:22:39.859Z,83.30
2018-03-16T13:25:07.469Z,85.30
2018-03-16T13:27:35.017Z,86.50
2018-03-16T13:30:03.350Z,87.30
2018-03-16T13:32:31.007Z,87.20
2018-03-16T13:34:58.590Z,84.90
2018-03-16T13:37:26.246Z,86.90
2018-03-16T13:39:53.811Z,85.30
2018-03-16T13:42:21.381Z,85.60
2018-03-16T13:44:48.943Z,83.10
2018-03-16T13:47:16.538Z,84.20
2018-03-16T13:49:44.112Z,85.70
2018-03-16T13:52:11.689Z,86.30
2018-03-16T13:54:39.264Z,84.90
2018-03-16T13:57:06.832Z,85.90
2018-03-16T13:59:34.385Z,85.10
2018-03-16T14:02:02.059Z,84.60
2018-03-16T14:04:29.603Z,85.00
2018-03-16T14:06:57.161Z,86.10
2018-03-16T14:09:24.845Z,84.30
2018-03-16T14:11:52.473Z,85.10
2018-03-16T14:14:20.058Z,84.40
2018-03-16T14:16:47.716Z,80.70
2018-03-16T14:19:15.369Z,80.00
2018-03-16T14:21:42.991Z,79.00
2018-03-16T14:24:11.412Z,80.40
2018-03-16T14:26:38.958Z,80.40
2018-03-16T14:29:06.517Z,80.80
2018-03-16T14:31:34.095Z,81.40
2018-03-16T14:34:01.639Z,81.50
2018-03-16T14:36:29.219Z,82.40
2018-03-16T14:38:56.877Z,83.80
2018-03-16T14:41:24.430Z,83.40
2018-03-16T14:43:52.088Z,84.50
2018-03-16T14:46:19.666Z,85.20
2018-03-16T14:48:47.327Z,87.00
2018-03-16T14:51:14.896Z,87.20
2018-03-16T14:53:42.502Z,87.20
2018-03-16T14:56:10.826Z,87.60
2018-03-16T14:58:38.382Z,87.60
2018-03-16T15:01:05.942Z,87.80
2018-03-16T15:03:33.492Z,88.10
2018-03-16T15:06:01.075Z,87.40
2018-03-16T15:08:28.635Z,87.60
2018-03-16T15:10:56.185Z,87.60
2018-03-16T15:13:23.743Z,88.60
2018-03-16T15:15:51.335Z,88.00
2018-03-16T15:18:18.897Z,88.20
2018-03-16T15:20:46.550Z,88.00
2018-03-16T15:23:14.128Z,87.70
2018-03-16T15:25:41.767Z,88.30
2018-03-16T15:28:09.331Z,89.00
2018-03-16T15:30:36.995Z,89.10
2018-03-16T15:33:04.555Z,89.20
2018-03-16T15:35:32.208Z,89.70
2018-03-16T15:37:59.868Z,89.70
2018-03-16T15:40:27.439Z,89.90
2018-03-16T15:42:55.174Z,90.00
2018-03-16T15:45:22.762Z,90.20
2018-03-16T15:47:50.325Z,90.50
2018-03-16T15:50:18.059Z,90.30
2018-03-16T15:52:45.648Z,90.20
2018-03-16T15:55:13.313Z,90.30
2018-03-16T15:57:40.979Z,90.50
2018-03-16T16:00:08.551Z,90.40
2018-03-16T16:02:36.111Z,90.90
2018-03-16T16:05:03.754Z,91.80
2018-03-16T16:07:31.321Z,91.80
2018-03-16T16:09:58.865Z,92.00
2018-03-16T16:12:26.426Z,92.20
2018-03-16T16:14:54.104Z,92.50
2018-03-16T16:17:21.647Z,92.70
2018-03-16T16:19:49.214Z,91.90
2018-03-16T16:22:16.799Z,92.40
2018-03-16T16:24:44.367Z,92.40
2018-03-16T16:27:12.722Z,92.40
2018-03-16T16:29:40.388Z,92.40
2018-03-16T16:32:07.967Z,92.60
2018-03-16T16:34:36.316Z,93.10
2018-03-16T16:37:03.884Z,93.10
2018-03-16T16:39:31.473Z,93.60
2018-03-16T16:41:59.801Z,93.90
2018-03-16T16:44:27.476Z,93.50
2018-03-16T16:46:55.071Z,93.70
2018-03-16T16:49:23.426Z,93.50
2018-03-16T16:51:51.096Z,93.50
2018-03-16T16:54:18.656Z,93.80
2018-03-16T16:56:46.212Z,94.20
2018-03-16T16:59:13.790Z,94.10
2018-03-16T17:01:41.355Z,94.30
2018-03-16T17:04:08.906Z,94.60
2018-03-16T17:06:37.253Z,94.20
2018-03-16T17:09:04.810Z,94.20
2018-03-16T17:11:32.364Z,93.90
2018-03-16T17:13:59.923Z,93.90
2018-03-16T17:16:27.476Z,93.90
2018-03-16T17:18:55.024Z,93.90
2018-03-16T17:21:22.619Z,93.90
2018-03-16T17:23:50.188Z,94.00
2018-03-16T17:26:17.744Z,94.10
2018-03-16T17:28:45.413Z,94.20
2018-03-16T17:31:12.969Z,94.50
2018-03-16T17:33:40.511Z,94.60
2018-03-16T17:36:08.120Z,94.40
2018-03-16T17:38:36.455Z,94.40
2018-03-16T17:41:04.031Z,94.40
2018-03-16T17:43:31.601Z,94.50
2018-03-16T17:45:59.154Z,94.50
2018-03-16T17:48:26.825Z,94.50
2018-03-16T17:50:54.412Z,94.60
2018-03-16T17:53:22.730Z,94.30
2018-03-16T17:55:50.317Z,94.30
2018-03-16T17:58:17.917Z,94.30
2018-03-16T18:00:46.260Z,94.60
2018-03-16T18:03:13.915Z,94.60
2018-03-16T18:05:41.578Z,94.50
2018-03-16T18:08:09.226Z,94.10
2018-03-16T18:10:36.781Z,94.20
2018-03-16T18:13:04.354Z,94.20
2018-03-16T18:15:31.912Z,94.20
2018-03-16T18:17:59.476Z,94.10
2018-03-16T18:20:27.167Z,94.10
2018-03-16T18:22:54.732Z,94.00
2018-03-16T18:25:22.275Z,93.80
2018-03-16T18:27:49.936Z,93.80
2018-03-16T18:30:17.496Z,93.80
2018-03-16T18:32:45.055Z,93.80
2018-03-16T18:35:12.639Z,93.80
2018-03-16T18:37:40.978Z,93.50
2018-03-16T18:40:08.546Z,93.40
2018-03-16T18:42:36.111Z,93.70
2018-03-16T18:45:03.763Z,93.70
2018-03-16T18:47:31.320Z,93.70
2018-03-16T18:49:58.886Z,93.80
2018-03-16T18:52:26.437Z,94.00
2018-03-16T18:54:54.015Z,93.70
2018-03-16T18:57:21.621Z,93.50
2018-03-16T18:59:49.946Z,93.70
2018-03-16T19:02:17.548Z,93.70
2018-03-16T19:04:45.105Z,93.50
2018-03-16T19:07:13.432Z,93.60
2018-03-16T19:09:40.998Z,93.60
2018-03-16T19:12:08.573Z,93.70
2018-03-16T19:14:36.129Z,93.70
2018-03-16T19:17:03.666Z,93.60
2018-03-16T19:19:31.312Z,93.70
2018-03-16T19:21:58.898Z,93.70
2018-03-16T19:24:26.746Z,93.80
2018-03-16T19:26:54.315Z,93.50
2018-03-16T19:29:21.911Z,93.60
2018-03-16T19:31:49.456Z,93.80
2018-03-16T19:34:17.030Z,93.80
2018-03-16T19:36:44.640Z,93.50
2018-03-16T19:39:12.257Z,93.60
2018-03-16T19:41:39.847Z,93.60
2018-03-16T19:44:08.183Z,93.40
2018-03-16T19:46:35.743Z,93.70
2018-03-16T19:49:03.308Z,93.50
2018-03-16T19:51:30.979Z,93.70
2018-03-16T19:53:58.563Z,93.70
2018-03-16T19:56:26.987Z,93.60
2018-03-16T19:58:54.553Z,93.60
2018-03-16T20:01:22.112Z,93.50
2018-03-16T20:03:49.679Z,93.90
2018-03-16T20:06:17.254Z,93.50
2018-03-16T20:08:44.812Z,93.60
2018-03-16T20:11:12.376Z,93.50
2018-03-16T20:13:39.955Z,93.40
2018-03-16T20:16:07.521Z,93.40
2018-03-16T20:18:35.864Z,93.80
2018-03-16T20:21:03.405Z,93.40
2018-03-16T20:23:30.953Z,93.40
2018-03-16T20:25:58.535Z,93.70
2018-03-16T20:28:26.098Z,93.50
2018-03-16T20:30:53.671Z,93.60
2018-03-16T20:33:21.260Z,93.20
2018-03-16T20:35:48.827Z,92.70
2018-03-16T20:38:17.247Z,92.70
2018-03-16T20:40:44.828Z,92.70
2018-03-16T20:43:12.384Z,92.70
2018-03-16T20:45:39.965Z,92.80
2018-03-16T20:48:07.629Z,92.90
2018-03-16T20:50:35.206Z,93.10
2018-03-16T20:53:03.539Z,92.90
2018-03-16T20:55:31.121Z,92.80
2018-03-16T20:57:58.689Z,92.80
2018-03-16T21:00:26.344Z,92.50
2018-03-16T21:02:53.923Z,92.40
2018-03-16T21:05:21.466Z,92.50
2018-03-16T21:07:49.109Z,92.50
2018-03-16T21:10:16.777Z,92.50
2018-03-16T21:12:44.322Z,92.20
2018-03-16T21:15:11.906Z,92.60
2018-03-16T21:17:39.570Z,92.50
2018-03-16T21:20:07.163Z,92.50
2018-03-16T21:22:34.792Z,92.40
2018-03-16T21:25:02.446Z,92.40
2018-03-16T21:27:30.001Z,92.30
2018-03-16T21:29:57.656Z,92.50
2018-03-16T21:32:25.346Z,92.40
2018-03-16T21:34:52.904Z,92.30
2018-03-16T21:37:20.692Z,92.10
2018-03-16T21:39:49.054Z,92.40
2018-03-16T21:42:16.608Z,92.00
2018-03-16T21:44:44.179Z,91.70
2018-03-16T21:47:12.524Z,92.10
2018-03-16T21:49:40.100Z,92.10
2018-03-16T21:52:07.664Z,92.10
2018-03-16T21:54:35.232Z,92.50
2018-03-16T21:57:02.794Z,92.10
2018-03-16T21:59:30.360Z,92.20
2018-03-16T22:01:57.940Z,92.10
2018-03-16T22:04:26.258Z,92.80
2018-03-16T22:06:53.922Z,92.40
2018-03-16T22:09:21.498Z,92.00
2018-03-16T22:11:49.074Z,92.00
2018-03-16T22:14:16.620Z,92.10
2018-03-16T22:16:44.204Z,91.80
2018-03-16T22:19:11.857Z,91.80
2018-03-16T22:21:39.413Z,91.90
2018-03-16T22:24:06.999Z,91.80
2018-03-16T22:26:34.648Z,91.90
2018-03-16T22:29:02.983Z,92.00
2018-03-16T22:31:30.571Z,92.10
2018-03-16T22:33:58.135Z,92.10
2018-03-16T22:36:25.694Z,91.80
2018-03-16T22:38:53.847Z,91.90
2018-03-16T22:41:21.406Z,91.80
2018-03-16T22:43:48.998Z,91.80
2018-03-16T22:46:16.650Z,91.80
2018-03-16T22:48:44.302Z,91.90
2018-03-16T22:51:11.840Z,91.80
2018-03-16T22:53:39.395Z,91.80
2018-03-16T22:56:07.723Z,91.60
2018-03-16T22:58:35.268Z,91.60
2018-03-16T23:01:02.852Z,91.70
2018-03-16T23:03:30.459Z,91.40
2018-03-16T23:05:58.007Z,90.90
2018-03-16T23:08:26.348Z,91.20
2018-03-16T23:10:53.906Z,91.20
2018-03-16T23:13:21.480Z,91.50
2018-03-16T23:15:49.069Z,91.40
2018-03-16T23:18:17.391Z,91.50
2018-03-16T23:20:44.942Z,91.50
2018-03-16T23:23:12.512Z,91.40
2018-03-16T23:25:40.054Z,91.40
2018-03-16T23:28:07.645Z,91.20
2018-03-16T23:30:35.415Z,91.10
2018-03-16T23:33:04.887Z,91.10
2018-03-16T23:35:32.492Z,91.20
2018-03-16T23:38:00.063Z,91.40
2018-03-16T23:40:29.148Z,91.00
2018-03-16T23:42:56.799Z,90.90
2018-03-16T23:45:24.379Z,90.90
2018-03-16T23:47:52.037Z,90.90
2018-03-16T23:50:19.596Z,91.10
2018-03-16T23:52:47.162Z,91.00
2018-03-16T23:55:14.715Z,91.00
2018-03-16T23:57:42.265Z,90.70
